Time;durP1;ratioP1;P1;durP2;ratioP2;P2;SDS_P1;SDS_P2;PMS_P1;PMS_P2;Temp;Humidity;BMP_temperature;BMP_pressure;BME280_temperature;BME280_humidity;BME280_pressure;Samples;Min_cycle;Max_cycle;Signal;HPM_P1;HPM_P2
2021/11/30 00:01:36;;;;;;;20.30;13.27;;;4.60;99.90;;;;;;5104753;28;20607;-71
2021/11/30 00:04:03;;;;;;;19.83;13.25;;;4.60;99.90;;;;;;5111999;28;20301;-70
2021/11/30 00:06:32;;;;;;;20.05;14.35;;;4.60;99.90;;;;;;5110708;27;20631;-71
2021/11/30 00:09:10;;;;;;;18.80;14.00;;;4.60;99.90;;;;;;5104312;28;20198;-71
2021/11/30 00:11:36;;;;;;;18.92;12.60;;;4.60;99.90;;;;;;5094625;28;20655;-70
2021/11/30 00:14:04;;;;;;;18.08;13.07;;;4.60;99.90;;;;;;5114084;28;20226;-71
2021/11/30 00:16:30;;;;;;;19.02;14.32;;;4.60;99.90;;;;;;5106926;28;20210;-71
2021/11/30 00:18:57;;;;;;;22.00;13.05;;;4.60;99.90;;;;;;5106044;28;20198;-72
2021/11/30 00:21:24;;;;;;;20.55;14.30;;;4.60;99.90;;;;;;5108678;27;20285;-72
2021/11/30 00:23:51;;;;;;;20.77;14.57;;;4.70;99.90;;;;;;5114240;28;20222;-71
2021/11/30 00:26:19;;;;;;;20.90;14.65;;;4.60;99.90;;;;;;5106335;28;20222;-72
2021/11/30 00:28:46;;;;;;;21.05;14.27;;;4.70;99.90;;;;;;5105753;28;20277;-72
2021/11/30 00:31:13;;;;;;;20.63;14.80;;;4.60;99.90;;;;;;5110504;28;20556;-72
2021/11/30 00:33:40;;;;;;;20.15;13.48;;;4.70;99.90;;;;;;5107711;28;20225;-71
2021/11/30 00:36:07;;;;;;;18.48;14.02;;;4.60;99.90;;;;;;5122724;27;20232;-71
2021/11/30 00:38:35;;;;;;;18.05;13.55;;;4.60;99.90;;;;;;5114099;28;20261;-70
2021/11/30 00:41:02;;;;;;;20.67;15.57;;;4.60;99.90;;;;;;5113581;28;20565;-72
2021/11/30 00:43:33;;;;;;;22.92;14.40;;;4.60;99.90;;;;;;5111971;28;21002;-69
2021/11/30 00:46:08;;;;;;;18.77;13.10;;;4.60;99.90;;;;;;5116204;27;20211;-71
2021/11/30 00:48:35;;;;;;;15.98;11.52;;;4.70;99.90;;;;;;5104519;27;20198;-72
2021/11/30 00:51:07;;;;;;;20.10;14.15;;;4.70;99.90;;;;;;5129410;27;20237;-71
2021/11/30 00:53:35;;;;;;;22.70;15.18;;;4.70;99.90;;;;;;5116409;27;20695;-71
2021/11/30 00:56:03;;;;;;;19.80;14.88;;;4.70;99.90;;;;;;5109201;28;20198;-71
2021/11/30 00:58:32;;;;;;;19.88;15.80;;;4.70;99.90;;;;;;5119284;27;20215;-71
2021/11/30 01:00:59;;;;;;;22.92;15.75;;;4.70;99.90;;;;;;5120353;27;20212;-72
2021/11/30 01:03:26;;;;;;;19.83;15.68;;;4.70;99.90;;;;;;5116063;27;20239;-71
2021/11/30 01:05:53;;;;;;;24.88;16.27;;;4.70;99.90;;;;;;5113084;28;20284;-70
2021/11/30 01:08:20;;;;;;;17.30;14.32;;;4.80;99.90;;;;;;5106823;27;20204;-70
2021/11/30 01:10:47;;;;;;;20.73;13.80;;;4.70;99.90;;;;;;5117366;27;20284;-71
2021/11/30 01:13:14;;;;;;;19.83;13.93;;;4.80;99.90;;;;;;5103885;28;20316;-71
2021/11/30 01:15:44;;;;;;;22.38;13.23;;;4.80;99.90;;;;;;5106602;28;20237;-71
2021/11/30 01:18:11;;;;;;;19.92;14.80;;;4.80;99.90;;;;;;5109387;28;20210;-69
2021/11/30 01:20:38;;;;;;;18.58;14.00;;;5.00;99.90;;;;;;5112511;27;20202;-69
2021/11/30 01:23:06;;;;;;;14.85;12.93;;;4.90;99.90;;;;;;5109103;28;20221;-71
2021/11/30 01:25:35;;;;;;;15.90;12.30;;;4.90;99.90;;;;;;5109908;28;20195;-69
2021/11/30 01:28:02;;;;;;;16.40;12.73;;;4.90;99.90;;;;;;5113443;27;20206;-71
2021/11/30 01:30:29;;;;;;;16.50;12.57;;;4.90;99.90;;;;;;5110765;28;20201;-70
2021/11/30 01:32:58;;;;;;;15.80;10.90;;;4.90;99.90;;;;;;5101423;28;20224;-70
2021/11/30 01:35:25;;;;;;;14.00;11.68;;;4.90;99.90;;;;;;5105979;28;20248;-70
2021/11/30 01:37:53;;;;;;;14.05;12.07;;;4.90;99.90;;;;;;5112921;27;20669;-69
2021/11/30 01:40:22;;;;;;;15.40;11.20;;;5.00;99.90;;;;;;5113334;28;20193;-72
2021/11/30 01:42:51;;;;;;;13.18;11.77;;;5.00;99.90;;;;;;5116478;27;20614;-71
2021/11/30 01:45:28;;;;;;;14.95;13.15;;;4.90;99.90;;;;;;5108181;28;20616;-69
2021/11/30 01:50:55;;;;;;;13.45;11.20;;;5.00;99.90;;;;;;5108951;28;20193;-71
2021/11/30 01:53:23;;;;;;;16.63;12.25;;;5.00;99.90;;;;;;5117583;28;20232;-71
2021/11/30 01:55:50;;;;;;;16.08;12.57;;;5.00;99.90;;;;;;5108060;28;20218;-69
2021/11/30 01:58:17;;;;;;;16.95;12.38;;;5.00;99.90;;;;;;5119312;28;20216;-69
2021/11/30 02:00:46;;;;;;;12.93;11.43;;;5.00;99.90;;;;;;5111303;28;20292;-68
2021/11/30 02:03:15;;;;;;;13.23;11.73;;;5.00;99.90;;;;;;5106929;28;20300;-70
2021/11/30 02:05:43;;;;;;;17.88;11.65;;;5.00;99.90;;;;;;5115548;28;20185;-71
2021/11/30 02:08:10;;;;;;;16.30;12.75;;;5.00;99.90;;;;;;5112839;28;20791;-70
2021/11/30 02:10:38;;;;;;;12.10;10.80;;;5.00;99.90;;;;;;5103840;28;20289;-70
2021/11/30 02:13:06;;;;;;;12.73;11.20;;;5.00;99.90;;;;;;5096975;28;20221;-70
2021/11/30 02:15:38;;;;;;;11.75;10.48;;;5.00;99.90;;;;;;5114586;28;20214;-69
2021/11/30 02:18:11;;;;;;;12.25;10.13;;;5.00;99.90;;;;;;5101720;28;20741;-70
2021/11/30 02:20:41;;;;;;;12.95;9.52;;;5.00;99.90;;;;;;5099473;28;20293;-68
2021/11/30 02:23:15;;;;;;;10.10;8.35;;;5.00;99.90;;;;;;5112525;28;20241;-68
2021/11/30 02:25:43;;;;;;;10.93;9.93;;;4.90;99.90;;;;;;5103756;28;20213;-71
2021/11/30 02:28:10;;;;;;;9.20;7.25;;;4.90;99.90;;;;;;5105971;28;20201;-70
2021/11/30 02:30:37;;;;;;;8.63;7.22;;;4.80;99.90;;;;;;5096216;28;20547;-69
2021/11/30 02:33:04;;;;;;;17.23;6.90;;;4.80;99.90;;;;;;5121225;28;20218;-69
2021/11/30 02:35:31;;;;;;;8.55;6.65;;;4.80;99.90;;;;;;5109523;28;20206;-70
2021/11/30 02:37:59;;;;;;;9.60;8.65;;;4.80;99.90;;;;;;5102077;28;20566;-71
2021/11/30 02:40:26;;;;;;;12.75;9.05;;;4.80;99.90;;;;;;5121949;28;20206;-68
2021/11/30 02:42:53;;;;;;;10.65;6.30;;;4.70;99.90;;;;;;5099517;28;20249;-69
2021/11/30 02:45:20;;;;;;;15.23;8.57;;;4.80;99.90;;;;;;5102537;28;20194;-68
2021/11/30 02:47:47;;;;;;;12.80;7.55;;;4.80;99.90;;;;;;5100906;28;20202;-70
2021/11/30 02:50:15;;;;;;;11.00;8.93;;;4.80;99.90;;;;;;5102836;28;20198;-69
2021/11/30 02:52:42;;;;;;;12.07;9.57;;;4.70;99.90;;;;;;5122850;28;20236;-70
2021/11/30 02:55:11;;;;;;;13.30;9.02;;;4.70;99.90;;;;;;5111139;28;20225;-68
2021/11/30 02:57:38;;;;;;;13.23;8.23;;;4.60;99.90;;;;;;5103514;28;20208;-68
2021/11/30 03:00:07;;;;;;;10.75;8.30;;;4.60;99.90;;;;;;5107638;28;20281;-69
2021/11/30 03:02:35;;;;;;;11.10;8.20;;;4.60;99.90;;;;;;5115437;28;20219;-71
2021/11/30 03:05:04;;;;;;;11.32;9.10;;;4.60;99.90;;;;;;5108938;28;20189;-69
2021/11/30 03:07:36;;;;;;;9.80;8.80;;;4.60;99.90;;;;;;5113170;28;20206;-68
2021/11/30 03:10:05;;;;;;;13.68;8.50;;;4.70;99.90;;;;;;5110956;28;20288;-71
2021/11/30 03:12:33;;;;;;;11.25;9.57;;;4.60;99.90;;;;;;5123493;27;20217;-70
2021/11/30 03:15:05;;;;;;;13.38;9.15;;;4.60;99.90;;;;;;5110221;28;20213;-72
2021/11/30 03:17:32;;;;;;;10.65;7.93;;;4.60;99.90;;;;;;5099074;28;20723;-71
2021/11/30 03:19:59;;;;;;;12.25;10.30;;;4.60;99.90;;;;;;5115299;28;20198;-69
2021/11/30 03:22:27;;;;;;;12.25;10.15;;;4.60;99.90;;;;;;5115805;28;20696;-71
2021/11/30 03:24:54;;;;;;;12.30;8.98;;;4.60;99.90;;;;;;5101690;28;20204;-70
2021/11/30 03:27:21;;;;;;;15.43;9.85;;;4.60;99.90;;;;;;5112122;28;20237;-71
2021/11/30 03:29:49;;;;;;;10.80;9.40;;;4.60;99.90;;;;;;5102136;28;20211;-69
2021/11/30 03:34:57;;;;;;;15.02;11.90;;;4.70;99.90;;;;;;5108352;28;20256;-69
2021/11/30 03:37:24;;;;;;;14.52;9.65;;;4.60;99.90;;;;;;5106150;28;20193;-71
2021/11/30 03:39:52;;;;;;;15.50;10.95;;;4.60;99.90;;;;;;5106188;28;20274;-68
2021/11/30 03:42:19;;;;;;;12.88;11.27;;;4.60;99.90;;;;;;5109394;28;20217;-69
2021/11/30 03:44:46;;;;;;;13.02;10.80;;;4.60;99.90;;;;;;5099258;28;20285;-72
2021/11/30 03:47:14;;;;;;;13.40;10.55;;;4.70;99.90;;;;;;5107426;28;20265;-70
2021/11/30 03:49:42;;;;;;;13.68;12.15;;;4.70;99.90;;;;;;5099368;28;20197;-70
2021/11/30 03:52:09;;;;;;;13.52;11.15;;;4.70;99.90;;;;;;5104746;28;20267;-71
2021/11/30 03:54:36;;;;;;;12.02;10.25;;;4.70;99.90;;;;;;5100812;28;20194;-71
2021/11/30 03:57:04;;;;;;;12.38;10.80;;;4.70;99.90;;;;;;5107482;28;20224;-70
2021/11/30 03:59:31;;;;;;;12.50;10.43;;;4.70;99.90;;;;;;5107836;28;20553;-69
2021/11/30 04:01:58;;;;;;;11.98;10.07;;;4.70;99.90;;;;;;5098425;28;20300;-71
2021/11/30 04:04:30;;;;;;;9.90;9.00;;;4.80;99.90;;;;;;5103383;28;20205;-71
2021/11/30 04:06:57;;;;;;;14.05;9.70;;;4.80;99.90;;;;;;5104485;28;20237;-72
2021/11/30 04:09:26;;;;;;;13.35;9.80;;;4.80;99.90;;;;;;5112275;28;20198;-70
2021/11/30 04:11:54;;;;;;;12.95;10.80;;;4.80;99.90;;;;;;5103659;28;20221;-72
2021/11/30 04:14:21;;;;;;;15.13;10.23;;;4.80;99.90;;;;;;5096016;28;20675;-71
2021/11/30 04:16:49;;;;;;;12.30;11.00;;;4.80;99.90;;;;;;5096315;28;20216;-72
2021/11/30 04:19:16;;;;;;;13.48;10.93;;;4.80;99.90;;;;;;5106818;27;20194;-70
2021/11/30 04:21:44;;;;;;;11.65;10.50;;;4.80;99.90;;;;;;5103520;28;20222;-72
2021/11/30 04:24:11;;;;;;;13.15;11.63;;;4.80;99.90;;;;;;5106139;28;20198;-70
2021/11/30 04:26:38;;;;;;;11.50;10.07;;;4.80;99.90;;;;;;5105555;28;20204;-70
2021/11/30 04:29:06;;;;;;;12.20;10.90;;;4.80;99.90;;;;;;5109646;28;20216;-73
2021/11/30 04:31:34;;;;;;;13.73;11.98;;;4.80;99.90;;;;;;5113449;28;20206;-72
2021/11/30 04:34:03;;;;;;;17.50;13.45;;;4.80;99.90;;;;;;5107141;28;20202;-72
2021/11/30 04:36:30;;;;;;;14.73;13.23;;;4.80;99.90;;;;;;5103008;28;20229;-72
2021/11/30 04:38:59;;;;;;;14.18;11.75;;;4.90;99.90;;;;;;5114135;28;20194;-71
2021/11/30 04:41:26;;;;;;;14.15;12.75;;;4.90;99.90;;;;;;5104191;28;20293;-72
2021/11/30 04:43:52;;;;;;;13.25;11.25;;;4.80;99.90;;;;;;5100244;28;20628;-72
2021/11/30 04:46:23;;;;;;;21.27;14.13;;;4.80;99.90;;;;;;5111270;28;20202;-70
2021/11/30 04:48:56;;;;;;;13.75;11.27;;;4.80;99.90;;;;;;5106095;28;20270;-72
2021/11/30 04:51:23;;;;;;;17.33;12.70;;;4.90;99.90;;;;;;5102158;28;20191;-70
2021/11/30 04:53:51;;;;;;;14.25;12.75;;;4.90;99.90;;;;;;5085772;28;20521;-71
2021/11/30 04:56:19;;;;;;;16.20;13.45;;;4.90;99.90;;;;;;5111854;28;20312;-72
2021/11/30 04:58:47;;;;;;;18.77;14.27;;;4.90;99.90;;;;;;5099981;28;20292;-72
2021/11/30 05:01:16;;;;;;;14.80;12.55;;;4.90;99.90;;;;;;5109281;28;20197;-73
2021/11/30 05:03:44;;;;;;;14.18;12.65;;;5.00;99.90;;;;;;5105609;28;20217;-71
2021/11/30 05:06:12;;;;;;;17.30;14.40;;;4.90;99.90;;;;;;5107023;28;20376;-70
2021/11/30 05:08:39;;;;;;;17.58;12.82;;;5.00;99.90;;;;;;5097594;28;20202;-70
2021/11/30 05:11:06;;;;;;;17.35;14.45;;;5.00;99.90;;;;;;5103881;28;20606;-71
2021/11/30 05:13:35;;;;;;;15.27;13.35;;;5.00;99.90;;;;;;5113724;28;20221;-70
2021/11/30 05:16:02;;;;;;;14.77;13.10;;;5.00;99.90;;;;;;5111027;28;20224;-72
2021/11/30 05:18:28;;;;;;;16.45;14.00;;;5.10;99.90;;;;;;5104968;28;20205;-69
2021/11/30 05:20:59;;;;;;;16.27;13.73;;;5.10;99.90;;;;;;5104878;28;20207;-69
2021/11/30 05:23:28;;;;;;;20.58;15.05;;;5.20;99.90;;;;;;5107375;28;20218;-72
2021/11/30 05:25:56;;;;;;;17.45;14.52;;;5.10;99.90;;;;;;5105569;28;20210;-71
2021/11/30 05:28:23;;;;;;;16.60;14.75;;;5.20;99.90;;;;;;5100102;28;20202;-70
2021/11/30 05:30:52;;;;;;;17.65;13.77;;;5.20;99.90;;;;;;5105362;28;20235;-71
2021/11/30 05:33:19;;;;;;;19.50;15.95;;;5.20;99.90;;;;;;5109232;28;20316;-71
2021/11/30 05:35:45;;;;;;;18.48;15.35;;;5.20;99.90;;;;;;5109293;28;20249;-72
2021/11/30 05:38:12;;;;;;;17.65;15.15;;;5.20;99.90;;;;;;5106543;28;20198;-72
2021/11/30 05:40:41;;;;;;;17.25;14.80;;;5.30;99.90;;;;;;5101497;28;20258;-72
2021/11/30 05:43:09;;;;;;;20.80;16.35;;;5.30;99.90;;;;;;5109366;28;20213;-72
2021/11/30 05:45:37;;;;;;;15.65;13.82;;;5.30;99.90;;;;;;5104995;28;20236;-71
2021/11/30 05:48:06;;;;;;;21.00;17.80;;;5.40;99.90;;;;;;5100514;28;20203;-71
2021/11/30 05:50:33;;;;;;;20.15;15.70;;;5.40;99.90;;;;;;5112684;28;20669;-72
2021/11/30 05:53:01;;;;;;;19.40;16.92;;;5.50;99.90;;;;;;5108627;28;20258;-72
2021/11/30 05:55:28;;;;;;;18.25;15.73;;;5.50;99.90;;;;;;5098832;28;20229;-73
2021/11/30 05:57:55;;;;;;;21.80;17.40;;;5.50;99.90;;;;;;5108786;28;20200;-73
2021/11/30 06:00:24;;;;;;;22.23;16.75;;;5.60;99.90;;;;;;5102445;28;20372;-70
2021/11/30 06:02:59;;;;;;;22.25;18.15;;;5.60;99.90;;;;;;5107038;28;20217;-70
2021/11/30 06:05:29;;;;;;;19.33;16.95;;;5.60;99.90;;;;;;5075057;28;20204;-73
2021/11/30 06:07:57;;;;;;;18.95;16.98;;;5.70;99.90;;;;;;5101897;28;20663;-72
2021/11/30 06:10:24;;;;;;;18.40;16.00;;;5.70;99.90;;;;;;5104696;28;20202;-72
2021/11/30 06:12:52;;;;;;;21.45;17.05;;;5.80;99.90;;;;;;5108986;28;20312;-73
2021/11/30 06:15:19;;;;;;;19.48;16.05;;;5.80;99.90;;;;;;5102223;28;20194;-72
2021/11/30 06:17:46;;;;;;;21.40;15.93;;;5.80;99.90;;;;;;5105486;28;20282;-72
2021/11/30 06:20:15;;;;;;;24.88;19.50;;;5.80;99.90;;;;;;5098172;28;20194;-73
2021/11/30 06:22:44;;;;;;;24.88;18.00;;;5.80;99.90;;;;;;5108225;28;20307;-71
2021/11/30 06:25:11;;;;;;;20.75;17.00;;;5.90;99.90;;;;;;5099804;28;20202;-73
2021/11/30 06:27:38;;;;;;;25.77;17.08;;;5.90;99.90;;;;;;5108364;28;20715;-74
2021/11/30 06:30:07;;;;;;;19.88;17.77;;;5.90;99.90;;;;;;5105499;28;20200;-74
2021/11/30 06:32:34;;;;;;;21.45;17.02;;;6.00;99.90;;;;;;5100655;28;20247;-75
2021/11/30 06:35:02;;;;;;;19.13;15.25;;;6.10;99.90;;;;;;5106659;28;20191;-76
2021/11/30 06:37:29;;;;;;;19.40;16.23;;;6.20;99.90;;;;;;5108665;28;20211;-77
2021/11/30 06:39:57;;;;;;;17.77;15.23;;;6.20;99.90;;;;;;5107530;28;20206;-76
2021/11/30 06:42:26;;;;;;;14.63;12.75;;;6.30;99.90;;;;;;5116048;28;20222;-74
2021/11/30 06:44:53;;;;;;;17.83;15.65;;;6.30;99.90;;;;;;5111537;28;20205;-76
2021/11/30 06:47:20;;;;;;;19.63;16.17;;;6.40;99.90;;;;;;5115589;28;20322;-75
2021/11/30 06:49:47;;;;;;;18.27;15.13;;;6.40;99.90;;;;;;5107260;27;20245;-75
2021/11/30 06:52:14;;;;;;;17.85;15.43;;;6.40;99.90;;;;;;5105281;28;20315;-76
2021/11/30 06:54:45;;;;;;;26.60;17.60;;;6.40;99.90;;;;;;5102806;28;20227;-76
2021/11/30 06:57:14;;;;;;;22.70;16.58;;;6.40;99.90;;;;;;5104707;28;20255;-74
2021/11/30 06:59:41;;;;;;;21.40;16.90;;;6.50;99.90;;;;;;5106857;28;20236;-75
2021/11/30 07:02:10;;;;;;;18.27;16.35;;;6.50;99.90;;;;;;5105400;28;20259;-75
2021/11/30 07:04:40;;;;;;;20.50;15.05;;;6.60;99.90;;;;;;5102580;28;20222;-75
2021/11/30 07:07:18;;;;;;;18.75;13.80;;;6.60;99.90;;;;;;5112491;28;20566;-75
2021/11/30 07:09:58;;;;;;;19.23;14.65;;;6.60;99.90;;;;;;5100670;28;20288;-76
2021/11/30 07:12:46;;;;;;;18.08;13.32;;;6.60;99.90;;;;;;5086642;28;20281;-76
2021/11/30 07:15:13;;;;;;;18.27;12.10;;;6.60;99.90;;;;;;5098552;28;20195;-77
2021/11/30 07:17:40;;;;;;;16.02;12.35;;;6.70;99.90;;;;;;5112053;28;20407;-75
2021/11/30 07:20:09;;;;;;;16.58;12.27;;;6.70;99.90;;;;;;5108994;28;20657;-76
2021/11/30 07:22:36;;;;;;;17.08;11.23;;;6.70;99.90;;;;;;5103845;28;20221;-77
2021/11/30 07:25:04;;;;;;;12.43;10.00;;;6.80;99.90;;;;;;5096042;28;20228;-78
2021/11/30 07:27:33;;;;;;;14.98;12.32;;;6.80;99.90;;;;;;5113568;28;20201;-76
2021/11/30 07:30:00;;;;;;;14.52;11.52;;;7.00;99.90;;;;;;5108687;28;20205;-78
2021/11/30 07:32:27;;;;;;;12.48;10.27;;;7.00;99.90;;;;;;5107704;28;20252;-77
2021/11/30 07:34:54;;;;;;;15.65;10.90;;;7.10;99.90;;;;;;5105527;28;20202;-76
2021/11/30 07:37:20;;;;;;;13.75;10.02;;;7.10;99.90;;;;;;5106405;27;20224;-76
2021/11/30 07:39:47;;;;;;;16.75;12.65;;;7.10;99.90;;;;;;5105402;27;20213;-76
2021/11/30 07:42:14;;;;;;;13.77;10.25;;;7.10;99.90;;;;;;5112554;28;20224;-77
2021/11/30 07:44:44;;;;;;;12.18;9.82;;;7.20;99.90;;;;;;5114410;28;20667;-75
2021/11/30 07:47:11;;;;;;;13.70;8.27;;;7.30;99.90;;;;;;5113930;28;20416;-76
2021/11/30 07:49:38;;;;;;;12.15;8.88;;;7.30;99.90;;;;;;5103356;28;20247;-76
2021/11/30 07:52:06;;;;;;;10.80;7.40;;;7.30;99.90;;;;;;5114455;28;20268;-76
2021/11/30 07:54:33;;;;;;;13.95;10.50;;;7.40;99.90;;;;;;5105330;28;20201;-76
2021/11/30 07:57:00;;;;;;;13.32;8.10;;;7.40;99.90;;;;;;5113198;28;20236;-75
2021/11/30 07:59:28;;;;;;;12.88;8.38;;;7.40;99.90;;;;;;5114599;28;20200;-76
2021/11/30 08:01:56;;;;;;;11.90;7.63;;;7.40;99.90;;;;;;5111185;28;20563;-76
2021/11/30 08:04:23;;;;;;;7.05;5.88;;;7.40;99.90;;;;;;5102993;28;20670;-74
2021/11/30 08:06:50;;;;;;;8.73;7.55;;;7.50;99.90;;;;;;5104917;28;20713;-75
2021/11/30 08:09:17;;;;;;;13.88;6.80;;;7.50;99.90;;;;;;5101575;28;20246;-75
2021/11/30 08:11:44;;;;;;;8.95;6.03;;;7.60;99.90;;;;;;5101274;28;20537;-76
2021/11/30 08:14:15;;;;;;;9.57;5.57;;;7.60;99.90;;;;;;5102061;28;20280;-75
2021/11/30 08:16:41;;;;;;;11.35;6.97;;;7.60;99.90;;;;;;5107910;28;20278;-74
2021/11/30 08:19:10;;;;;;;6.70;5.25;;;7.60;99.90;;;;;;5101446;28;20611;-75
2021/11/30 08:21:37;;;;;;;13.77;6.47;;;7.60;99.90;;;;;;5098732;28;20194;-75
2021/11/30 08:24:05;;;;;;;7.68;5.35;;;7.70;99.90;;;;;;5105532;28;20198;-76
2021/11/30 08:26:31;;;;;;;11.63;5.80;;;7.70;99.90;;;;;;5104891;28;20316;-76
2021/11/30 08:28:59;;;;;;;9.43;6.45;;;7.70;99.90;;;;;;5102756;28;20195;-75
2021/11/30 08:31:25;;;;;;;10.98;5.72;;;7.80;99.90;;;;;;5105187;28;20233;-75
2021/11/30 08:33:53;;;;;;;8.23;5.70;;;7.80;99.90;;;;;;5112330;28;20221;-75
2021/11/30 08:36:21;;;;;;;10.70;5.05;;;7.80;99.90;;;;;;5100354;28;20225;-75
2021/11/30 08:38:48;;;;;;;13.23;5.25;;;7.90;99.90;;;;;;5106611;28;20205;-76
2021/11/30 08:41:19;;;;;;;10.38;5.18;;;8.00;99.90;;;;;;5104123;28;20228;-76
2021/11/30 08:43:46;;;;;;;8.30;5.03;;;8.00;99.90;;;;;;5111857;28;20235;-75
2021/11/30 08:46:13;;;;;;;7.28;3.35;;;8.00;99.90;;;;;;5098094;28;20274;-75
2021/11/30 08:48:41;;;;;;;14.65;5.22;;;8.00;99.90;;;;;;5103949;28;20237;-75
2021/11/30 08:51:08;;;;;;;15.63;4.65;;;8.10;99.90;;;;;;5104632;28;20204;-75
2021/11/30 08:53:36;;;;;;;12.27;5.20;;;8.10;99.90;;;;;;5100593;28;20229;-75
2021/11/30 08:56:04;;;;;;;16.58;4.10;;;8.20;99.90;;;;;;5109108;28;20284;-75
2021/11/30 08:58:32;;;;;;;14.98;4.47;;;8.30;99.90;;;;;;5102739;28;20202;-75
2021/11/30 09:00:59;;;;;;;10.35;3.40;;;8.30;99.90;;;;;;5102491;28;20193;-76
2021/11/30 09:03:26;;;;;;;11.05;2.88;;;8.30;99.90;;;;;;5105351;28;20243;-75
2021/11/30 09:05:53;;;;;;;10.50;4.68;;;8.40;99.90;;;;;;5103993;28;20232;-75
2021/11/30 09:08:20;;;;;;;16.23;6.47;;;8.40;99.90;;;;;;5105477;28;20684;-74
2021/11/30 09:10:49;;;;;;;14.38;4.13;;;8.50;99.90;;;;;;5093325;28;20683;-75
2021/11/30 09:13:16;;;;;;;12.95;4.80;;;8.60;99.90;;;;;;5103059;28;20221;-75
2021/11/30 09:15:44;;;;;;;21.60;4.20;;;8.60;99.90;;;;;;5095228;28;20210;-75
2021/11/30 09:18:11;;;;;;;10.35;3.38;;;8.60;99.90;;;;;;5112058;28;20327;-75
2021/11/30 09:20:38;;;;;;;8.85;2.88;;;8.80;99.90;;;;;;5101443;28;20281;-74
2021/11/30 09:23:05;;;;;;;8.93;3.30;;;8.90;99.90;;;;;;5099631;28;20309;-74
2021/11/30 09:25:33;;;;;;;11.18;2.72;;;9.10;99.90;;;;;;5101301;28;20569;-74
2021/11/30 09:28:03;;;;;;;9.88;3.17;;;9.20;99.90;;;;;;5102673;28;20269;-74
2021/11/30 09:30:30;;;;;;;22.45;4.90;;;9.20;99.90;;;;;;5107386;28;20210;-75
2021/11/30 09:32:57;;;;;;;16.33;4.47;;;9.30;99.90;;;;;;5107476;28;20217;-73
2021/11/30 09:35:25;;;;;;;11.88;4.00;;;9.20;99.90;;;;;;5101864;28;20281;-74
2021/11/30 09:37:54;;;;;;;13.65;4.03;;;9.30;99.90;;;;;;5106879;28;20209;-75
2021/11/30 09:40:24;;;;;;;14.82;3.60;;;9.30;99.90;;;;;;5103142;28;20289;-74
2021/11/30 09:42:52;;;;;;;16.70;3.05;;;9.30;99.90;;;;;;5109883;28;20770;-75
2021/11/30 09:45:24;;;;;;;11.75;3.28;;;9.30;99.90;;;;;;5112393;28;20281;-74
2021/11/30 09:47:51;;;;;;;12.18;3.65;;;9.40;99.90;;;;;;5104315;28;20201;-75
2021/11/30 09:50:20;;;;;;;16.25;3.15;;;9.50;99.90;;;;;;5102763;28;20328;-75
2021/11/30 09:52:51;;;;;;;15.90;4.80;;;9.70;99.90;;;;;;5103505;28;20232;-75
2021/11/30 09:55:21;;;;;;;15.38;3.95;;;9.60;99.90;;;;;;5100797;28;20293;-75
2021/11/30 09:57:48;;;;;;;13.45;4.50;;;9.60;99.90;;;;;;5101149;28;20221;-74
2021/11/30 10:00:17;;;;;;;21.83;4.63;;;9.40;99.90;;;;;;5107578;28;20225;-74
2021/11/30 10:02:45;;;;;;;12.98;3.50;;;9.40;99.90;;;;;;5106500;28;20217;-73
2021/11/30 10:05:12;;;;;;;15.60;4.15;;;9.40;99.90;;;;;;5113634;28;20289;-75
2021/11/30 10:07:41;;;;;;;11.15;4.20;;;9.40;99.90;;;;;;5112172;28;20281;-75
2021/11/30 10:10:16;;;;;;;9.95;3.45;;;9.40;99.90;;;;;;5103334;28;20233;-76
2021/11/30 10:12:43;;;;;;;13.00;3.20;;;9.30;99.90;;;;;;5104480;28;20620;-75
2021/11/30 10:15:13;;;;;;;16.83;3.30;;;9.20;99.90;;;;;;5112119;28;20540;-75
2021/11/30 10:17:40;;;;;;;9.13;3.67;;;9.20;99.90;;;;;;5107553;28;20251;-75
2021/11/30 10:20:12;;;;;;;13.38;3.15;;;9.20;99.90;;;;;;5104490;28;20232;-75
2021/11/30 10:22:45;;;;;;;14.73;4.60;;;9.20;99.90;;;;;;5103342;28;20229;-75
2021/11/30 10:25:16;;;;;;;11.68;4.07;;;9.30;99.90;;;;;;5094846;28;20596;-75
2021/11/30 10:27:45;;;;;;;12.77;3.65;;;9.20;99.90;;;;;;5105073;28;20620;-75
2021/11/30 10:30:15;;;;;;;6.85;2.95;;;9.20;99.90;;;;;;5110239;28;20251;-74
2021/11/30 10:32:45;;;;;;;16.40;3.50;;;9.10;99.90;;;;;;5104561;28;20301;-75
2021/11/30 10:35:15;;;;;;;9.77;3.00;;;9.10;99.90;;;;;;5104601;28;20225;-74
2021/11/30 10:37:46;;;;;;;13.50;3.40;;;9.10;99.90;;;;;;5108551;28;20228;-75
2021/11/30 10:40:16;;;;;;;13.18;4.53;;;9.20;99.90;;;;;;5113003;27;20280;-75
2021/11/30 10:42:48;;;;;;;13.73;2.97;;;9.20;99.90;;;;;;5100213;28;20229;-76
2021/11/30 10:45:30;;;;;;;11.60;3.85;;;9.60;99.90;;;;;;5104881;28;20349;-76
2021/11/30 10:48:07;;;;;;;10.77;3.70;;;9.80;99.90;;;;;;5110269;28;20236;-75
2021/11/30 10:50:41;;;;;;;16.20;3.08;;;9.60;99.90;;;;;;5104647;28;20680;-75
2021/11/30 10:53:20;;;;;;;18.55;5.20;;;9.60;99.90;;;;;;5108383;28;20237;-76
2021/11/30 10:55:49;;;;;;;13.60;3.83;;;9.60;99.90;;;;;;5101552;28;20233;-75
2021/11/30 10:58:17;;;;;;;10.80;3.17;;;9.50;99.90;;;;;;5112141;28;20210;-74
2021/11/30 11:00:44;;;;;;;13.85;5.07;;;9.40;99.90;;;;;;5103957;28;20199;-74
2021/11/30 11:03:17;;;;;;;7.60;2.20;;;9.40;99.90;;;;;;5111316;28;20276;-75
2021/11/30 11:05:47;;;;;;;9.27;3.22;;;9.50;99.90;;;;;;5109926;28;20198;-73
2021/11/30 11:08:19;;;;;;;12.85;2.88;;;9.40;99.90;;;;;;5109480;28;20866;-74
2021/11/30 11:10:48;;;;;;;9.98;2.45;;;9.30;99.90;;;;;;5107004;28;20226;-73
2021/11/30 11:13:25;;;;;;;11.63;3.00;;;9.30;99.90;;;;;;5106809;28;20225;-75
2021/11/30 11:15:53;;;;;;;7.55;2.88;;;9.40;99.90;;;;;;5103749;28;20265;-75
2021/11/30 11:18:23;;;;;;;13.30;2.95;;;9.50;99.90;;;;;;5105374;28;20292;-75
2021/11/30 11:20:53;;;;;;;19.40;3.72;;;9.60;99.90;;;;;;5101716;28;20221;-75
2021/11/30 11:23:21;;;;;;;8.75;2.70;;;9.60;99.90;;;;;;5109080;28;20214;-75
2021/11/30 11:25:48;;;;;;;13.27;3.40;;;9.60;99.90;;;;;;5106498;28;20281;-76
2021/11/30 11:28:16;;;;;;;12.70;2.92;;;9.50;99.90;;;;;;5107962;28;20273;-74
2021/11/30 11:30:43;;;;;;;6.72;2.50;;;9.50;99.90;;;;;;5105119;28;20652;-74
2021/11/30 11:33:11;;;;;;;7.45;2.88;;;9.50;99.90;;;;;;5107495;28;20225;-74
2021/11/30 11:35:39;;;;;;;13.15;3.45;;;9.70;99.90;;;;;;5106762;28;20201;-73
2021/11/30 11:38:10;;;;;;;13.23;3.10;;;9.80;99.90;;;;;;5107863;28;20766;-75
2021/11/30 11:40:37;;;;;;;14.30;4.00;;;9.80;99.90;;;;;;5100779;28;20327;-75
2021/11/30 11:43:05;;;;;;;17.35;3.33;;;9.70;99.90;;;;;;5103561;28;20651;-74
2021/11/30 11:45:32;;;;;;;13.77;3.35;;;9.70;99.90;;;;;;5104557;28;20226;-75
2021/11/30 11:48:08;;;;;;;14.90;3.40;;;9.70;99.90;;;;;;5096298;28;20562;-73
2021/11/30 11:50:53;;;;;;;7.15;2.63;;;9.60;99.90;;;;;;5101627;28;20205;-75
2021/11/30 11:53:27;;;;;;;10.52;3.10;;;9.60;99.90;;;;;;5101768;28;20284;-75
2021/11/30 11:56:23;;;;;;;7.72;2.90;;;9.50;99.90;;;;;;5116035;28;20264;-73
2021/11/30 11:58:52;;;;;;;8.18;2.17;;;9.40;99.90;;;;;;5064749;28;20255;-75
2021/11/30 12:01:22;;;;;;;9.98;2.97;;;9.40;99.90;;;;;;5103533;28;20326;-74
2021/11/30 12:03:58;;;;;;;10.07;3.47;;;9.40;99.90;;;;;;5103024;28;20641;-74
2021/11/30 12:06:27;;;;;;;13.30;4.55;;;9.40;99.90;;;;;;5086896;28;20259;-76
2021/11/30 12:09:24;;;;;;;8.18;2.90;;;9.50;99.90;;;;;;5104142;28;20666;-74
2021/11/30 12:11:53;;;;;;;9.55;3.47;;;9.70;99.90;;;;;;5052361;28;20577;-73
2021/11/30 12:14:30;;;;;;;11.57;2.75;;;9.80;99.90;;;;;;5107573;28;20292;-74
2021/11/30 12:17:16;;;;;;;13.23;3.60;;;9.80;99.90;;;;;;5099591;28;20198;-75
2021/11/30 12:19:46;;;;;;;11.35;3.40;;;9.90;99.90;;;;;;5101506;28;20205;-73
2021/11/30 12:22:36;;;;;;;13.82;2.60;;;10.00;99.90;;;;;;5106325;28;20276;-74
2021/11/30 12:25:06;;;;;;;13.90;3.15;;;10.00;99.90;;;;;;5110518;28;20197;-75
2021/11/30 12:27:42;;;;;;;16.98;4.97;;;9.80;99.90;;;;;;5113736;28;20213;-74
2021/11/30 12:30:43;;;;;;;12.02;3.05;;;9.60;99.90;;;;;;5114717;27;20982;-75
2021/11/30 12:33:17;;;;;;;14.45;4.10;;;9.50;99.90;;;;;;5111133;28;20217;-74
2021/11/30 12:35:53;;;;;;;11.43;2.20;;;9.50;99.90;;;;;;5105551;28;20616;-74
2021/11/30 12:38:23;;;;;;;15.70;3.88;;;9.30;99.90;;;;;;5101504;28;20228;-74
2021/11/30 12:40:52;;;;;;;13.20;3.88;;;9.20;99.90;;;;;;5104527;28;20201;-74
2021/11/30 12:43:25;;;;;;;14.30;2.97;;;9.10;99.90;;;;;;5105452;28;20271;-74
2021/11/30 12:45:57;;;;;;;12.20;2.70;;;8.90;99.90;;;;;;5106364;28;20209;-74
2021/11/30 12:48:35;;;;;;;12.27;4.32;;;8.80;99.90;;;;;;5105513;28;20694;-74
2021/11/30 12:51:21;;;;;;;10.75;3.65;;;8.90;99.90;;;;;;5087714;28;20205;-73
2021/11/30 12:53:48;;;;;;;8.75;3.08;;;8.80;99.90;;;;;;5104812;28;20267;-74
2021/11/30 12:56:51;;;;;;;14.05;4.32;;;8.90;99.90;;;;;;5105425;27;20198;-74
2021/11/30 12:59:51;;;;;;;8.70;3.10;;;8.90;99.90;;;;;;5104140;28;20228;-75